createdAt,value
2022-11-05T00:00:35.010Z,96791.81
2022-11-05T00:03:20.471Z,96785.88
2022-11-05T00:06:09.640Z,96769.91
2022-11-05T00:08:54.915Z,96782.34
2022-11-05T00:11:41.502Z,96779.72
2022-11-05T00:14:26.743Z,96777.91
2022-11-05T00:16:53.328Z,96765.69
2022-11-05T00:19:19.903Z,96769.06
2022-11-05T00:22:04.834Z,96771.41
2022-11-05T00:24:49.786Z,96775.19
2022-11-05T00:27:16.295Z,96772.38
2022-11-05T00:29:43.206Z,96763.31
2022-11-05T00:32:09.782Z,96761.00
2022-11-05T00:34:36.311Z,96761.78
2022-11-05T00:37:02.828Z,96780.06
2022-11-05T00:39:29.758Z,96756.31
2022-11-05T00:42:14.640Z,96747.56
2022-11-05T00:44:59.516Z,96773.41
2022-11-05T00:47:44.781Z,96770.28
2022-11-05T00:50:11.869Z,96774.06
2022-11-05T00:52:57.370Z,96754.94
2022-11-05T00:55:41.028Z,96762.81
2022-11-05T00:58:29.200Z,96756.38
2022-11-05T01:01:01.430Z,96746.00
2022-11-05T01:03:31.304Z,96736.13
2022-11-05T01:06:06.239Z,96734.56
2022-11-05T01:08:32.864Z,96739.91
2022-11-05T01:10:59.828Z,96743.22
2022-11-05T01:13:29.549Z,96738.66
2022-11-05T01:15:56.919Z,96732.09
2022-11-05T01:18:24.444Z,96737.53
2022-11-05T01:20:51.302Z,96718.31
2022-11-05T01:23:18.155Z,96704.16
2022-11-05T01:25:45.781Z,96686.09
2022-11-05T01:28:12.325Z,96706.97
2022-11-05T01:30:39.304Z,96712.91
2022-11-05T01:33:05.902Z,96707.16
2022-11-05T01:35:32.491Z,96687.56
2022-11-05T01:37:59.103Z,96702.31
2022-11-05T01:40:26.180Z,96682.97
2022-11-05T01:42:52.789Z,96678.78
2022-11-05T01:45:28.027Z,96676.28
2022-11-05T01:48:09.143Z,96678.03
2022-11-05T01:50:50.863Z,96679.31
2022-11-05T01:53:27.010Z,96675.25
2022-11-05T01:56:08.371Z,96656.69
2022-11-05T01:58:42.490Z,96645.41
2022-11-05T02:01:09.261Z,96631.56
2022-11-05T02:03:36.106Z,96650.63
2022-11-05T02:06:03.899Z,96636.78
2022-11-05T02:09:09.416Z,96642.38
2022-11-05T02:11:35.992Z,96642.59
2022-11-05T02:14:02.555Z,96642.41
2022-11-05T02:16:43.632Z,96642.16
2022-11-05T02:19:25.419Z,96640.06
2022-11-05T02:22:20.040Z,96642.19
2022-11-05T02:25:31.677Z,96643.72
2022-11-05T02:28:07.281Z,96648.13
2022-11-05T02:30:46.239Z,96645.81
2022-11-05T02:34:07.985Z,96631.50
2022-11-05T02:36:44.790Z,96643.97
2022-11-05T02:39:53.426Z,96634.94
2022-11-05T02:42:40.844Z,96645.09
2022-11-05T02:45:10.306Z,96636.34
2022-11-05T02:48:03.986Z,96628.34
2022-11-05T02:50:34.140Z,96646.69
2022-11-05T02:53:45.253Z,96632.88
2022-11-05T02:56:20.218Z,96639.91
2022-11-05T02:58:46.813Z,96632.03
2022-11-05T03:01:13.546Z,96623.03
2022-11-05T03:03:43.709Z,96630.75
2022-11-05T03:06:12.986Z,96645.41
2022-11-05T03:09:08.657Z,96626.88
2022-11-05T03:12:02.837Z,96638.09
2022-11-05T03:15:01.362Z,96633.06
2022-11-05T03:17:30.506Z,96640.41
2022-11-05T03:20:19.343Z,96646.00
2022-11-05T03:23:21.454Z,96644.66
2022-11-05T03:25:53.868Z,96652.09
2022-11-05T03:28:24.810Z,96662.72
2022-11-05T03:30:54.033Z,96661.94
2022-11-05T03:33:25.785Z,96645.38
2022-11-05T03:35:56.399Z,96652.56
2022-11-05T03:38:33.587Z,96666.59
2022-11-05T03:41:02.808Z,96681.56
2022-11-05T03:43:34.329Z,96662.88
2022-11-05T03:46:06.579Z,96686.41
2022-11-05T03:48:38.297Z,96651.22
2022-11-05T03:51:29.350Z,96692.22
2022-11-05T03:53:59.176Z,96682.75
2022-11-05T03:56:37.790Z,96695.75
2022-11-05T03:59:06.679Z,96691.19
2022-11-05T04:01:33.620Z,96692.34
2022-11-05T04:04:00.267Z,96700.84
2022-11-05T04:06:45.342Z,96697.75
2022-11-05T04:09:30.242Z,96693.09
2022-11-05T04:12:15.059Z,96691.16
2022-11-05T04:14:41.688Z,96720.22
2022-11-05T04:17:10.994Z,96687.56
2022-11-05T04:19:58.678Z,96702.06
2022-11-05T04:22:46.117Z,96718.00
2022-11-05T04:25:14.146Z,96712.56
2022-11-05T04:27:40.725Z,96712.56
2022-11-05T04:30:20.523Z,96716.63
2022-11-05T04:33:07.458Z,96727.53
2022-11-05T04:35:47.346Z,96736.03
2022-11-05T04:38:19.191Z,96705.13
2022-11-05T04:40:46.982Z,96701.00
2022-11-05T04:43:15.701Z,96735.25
2022-11-05T04:45:42.925Z,96738.94
2022-11-05T04:48:09.731Z,96742.63
2022-11-05T04:50:36.327Z,96740.91
2022-11-05T04:53:02.882Z,96736.66
2022-11-05T04:55:29.616Z,96737.22
2022-11-05T04:57:56.373Z,96748.28
2022-11-05T05:00:24.048Z,96747.38
2022-11-05T05:02:50.741Z,96755.53
2022-11-05T05:05:17.357Z,96734.94
2022-11-05T05:07:43.872Z,96726.06
2022-11-05T05:10:11.296Z,96756.19
2022-11-05T05:12:37.891Z,96765.47
2022-11-05T05:15:05.336Z,96755.28
2022-11-05T05:17:31.763Z,96762.66
2022-11-05T05:20:16.797Z,96754.72
2022-11-05T05:22:43.472Z,96772.81
2022-11-05T05:25:10.019Z,96775.66
2022-11-05T05:27:36.557Z,96751.81
2022-11-05T05:30:03.547Z,96771.06
2022-11-05T05:32:30.102Z,96781.84
2022-11-05T05:34:56.692Z,96781.78
2022-11-05T05:37:23.266Z,96776.16
2022-11-05T05:39:50.169Z,96783.44
2022-11-05T05:42:16.740Z,96782.66
2022-11-05T05:44:43.333Z,96778.22
2022-11-05T05:47:10.485Z,96796.47
2022-11-05T05:49:37.012Z,96781.97
2022-11-05T05:52:03.646Z,96805.16
2022-11-05T05:54:32.864Z,96802.13
2022-11-05T05:57:01.654Z,96780.25
2022-11-05T05:59:28.248Z,96794.25
2022-11-05T06:01:54.973Z,96806.53
2022-11-05T06:04:21.720Z,96798.38
2022-11-05T06:06:48.297Z,96789.50
2022-11-05T06:09:15.367Z,96803.06
2022-11-05T06:11:41.990Z,96795.28
2022-11-05T06:14:13.030Z,96804.16
2022-11-05T06:16:40.400Z,96809.16
2022-11-05T06:19:07.842Z,96798.19
2022-11-05T06:21:34.578Z,96805.50
2022-11-05T06:24:04.894Z,96796.19
2022-11-05T06:26:31.697Z,96808.47
2022-11-05T06:28:58.232Z,96781.25
2022-11-05T06:31:25.490Z,96793.09
2022-11-05T06:33:52.118Z,96803.59
2022-11-05T06:36:20.085Z,96804.84
2022-11-05T06:38:46.981Z,96799.41
2022-11-05T06:41:13.807Z,96815.91
2022-11-05T06:43:40.781Z,96810.25
2022-11-05T06:46:08.030Z,96810.63
2022-11-05T06:48:34.736Z,96791.53
2022-11-05T06:51:01.309Z,96779.16
2022-11-05T06:53:28.563Z,96779.53
2022-11-05T06:55:55.208Z,96790.28
2022-11-05T06:58:21.831Z,96782.88
2022-11-05T07:00:48.908Z,96775.38
2022-11-05T07:03:15.984Z,96783.84
2022-11-05T07:05:46.663Z,96782.50
2022-11-05T07:08:13.741Z,96743.22
2022-11-05T07:10:40.395Z,96774.88
2022-11-05T07:13:08.633Z,96778.75
2022-11-05T07:15:36.734Z,96778.28
2022-11-05T07:18:04.385Z,96768.03
2022-11-05T07:20:34.321Z,96764.25
2022-11-05T07:23:12.524Z,96770.34
2022-11-05T07:25:40.169Z,96765.75
2022-11-05T07:28:06.863Z,96762.22
2022-11-05T07:30:34.627Z,96744.84
2022-11-05T07:33:01.508Z,96763.94
2022-11-05T07:35:28.502Z,96753.66
2022-11-05T07:37:55.576Z,96760.78
2022-11-05T07:40:25.685Z,96754.66
2022-11-05T07:42:58.263Z,96751.38
2022-11-05T07:45:27.932Z,96720.66
2022-11-05T07:48:00.400Z,96729.03
2022-11-05T07:50:30.656Z,96737.09
2022-11-05T07:53:02.225Z,96749.09
2022-11-05T07:55:29.396Z,96740.44
2022-11-05T07:57:55.957Z,96728.84
2022-11-05T08:00:23.910Z,96737.91
2022-11-05T08:03:07.363Z,96727.66
2022-11-05T08:05:37.741Z,96730.06
2022-11-05T08:08:05.743Z,96735.53
2022-11-05T08:10:34.006Z,96729.91
2022-11-05T08:13:00.661Z,96726.34
2022-11-05T08:15:27.276Z,96728.47
2022-11-05T08:18:10.465Z,96725.22
2022-11-05T08:20:38.758Z,96710.41
2022-11-05T08:23:05.890Z,96701.94
2022-11-05T08:25:32.411Z,96717.16
2022-11-05T08:28:04.699Z,96720.75
2022-11-05T08:30:32.150Z,96717.69
2022-11-05T08:32:59.874Z,96712.06
2022-11-05T08:35:27.986Z,96705.69
2022-11-05T08:37:59.323Z,96703.06
2022-11-05T08:40:26.502Z,96684.41
2022-11-05T08:42:53.201Z,96682.53
2022-11-05T08:45:19.770Z,96685.84
2022-11-05T08:47:46.314Z,96683.00
2022-11-05T08:50:12.851Z,96659.50
2022-11-05T08:52:42.515Z,96687.22
2022-11-05T08:55:09.639Z,96683.16
2022-11-05T08:57:36.311Z,96673.13
2022-11-05T09:00:03.372Z,96693.94
2022-11-05T09:02:30.026Z,96656.31
2022-11-05T09:04:56.676Z,96669.06
2022-11-05T09:07:23.326Z,96667.63
2022-11-05T09:09:49.920Z,96667.41
2022-11-05T09:12:16.645Z,96642.59
2022-11-05T09:14:43.211Z,96665.38
2022-11-05T09:17:17.654Z,96668.09
2022-11-05T09:19:44.439Z,96662.28
2022-11-05T09:22:13.037Z,96668.28
2022-11-05T09:24:40.695Z,96667.41
2022-11-05T09:27:10.374Z,96659.53
2022-11-05T09:29:37.067Z,96664.84
2022-11-05T09:32:03.739Z,96654.72
2022-11-05T09:34:30.309Z,96644.56
2022-11-05T09:36:57.726Z,96652.28
2022-11-05T09:39:24.491Z,96653.34
2022-11-05T09:41:54.705Z,96652.38
2022-11-05T09:44:30.011Z,96655.72
2022-11-05T09:47:00.875Z,96658.34
2022-11-05T09:49:35.423Z,96666.84
2022-11-05T09:52:02.595Z,96662.91
2022-11-05T09:54:34.139Z,96656.06
2022-11-05T09:57:03.102Z,96649.09
2022-11-05T09:59:39.412Z,96659.31
2022-11-05T10:02:26.791Z,96659.16
2022-11-05T10:05:01.482Z,96648.53
2022-11-05T10:07:35.486Z,96642.00
2022-11-05T10:10:06.036Z,96652.28
2022-11-05T10:12:52.817Z,96639.84
2022-11-05T10:15:33.072Z,96646.56
2022-11-05T10:18:14.654Z,96641.38
2022-11-05T10:20:44.158Z,96630.66
2022-11-05T10:23:14.469Z,96626.72
2022-11-05T10:25:46.021Z,96603.16
2022-11-05T10:28:20.947Z,96604.41
2022-11-05T10:30:50.558Z,96608.31
2022-11-05T10:33:29.041Z,96610.31
2022-11-05T10:36:02.329Z,96603.91
2022-11-05T10:38:29.258Z,96597.25
2022-11-05T10:41:10.494Z,96594.50
2022-11-05T10:43:40.920Z,96597.09
2022-11-05T10:46:34.927Z,96591.16
2022-11-05T10:49:09.847Z,96598.16
2022-11-05T10:51:36.733Z,96571.34
2022-11-05T10:54:19.371Z,96582.47
2022-11-05T10:56:45.962Z,96593.38
2022-11-05T10:59:27.602Z,96586.56
2022-11-05T11:02:18.143Z,96592.63
2022-11-05T11:04:54.256Z,96588.91
2022-11-05T11:07:24.774Z,96580.56
2022-11-05T11:09:52.316Z,96578.38
2022-11-05T11:12:26.015Z,96577.72
2022-11-05T11:15:15.806Z,96570.91
2022-11-05T11:17:42.437Z,96575.41
2022-11-05T11:20:23.527Z,96570.34
2022-11-05T11:23:02.979Z,96561.94
2022-11-05T11:25:44.883Z,96547.00
2022-11-05T11:28:26.832Z,96513.88
2022-11-05T11:31:03.601Z,96521.19
2022-11-05T11:33:31.617Z,96524.72
2022-11-05T11:35:58.777Z,96496.22
2022-11-05T11:38:30.060Z,96518.09
2022-11-05T11:41:17.513Z,96505.69
2022-11-05T11:43:45.050Z,96513.66
2022-11-05T11:46:20.587Z,96508.06
2022-11-05T11:48:49.412Z,96495.91
2022-11-05T11:51:30.378Z,96498.47
2022-11-05T11:54:00.192Z,96513.19
2022-11-05T11:56:29.141Z,96507.59
2022-11-05T11:59:01.127Z,96520.25
2022-11-05T12:01:49.672Z,96530.38
2022-11-05T12:04:35.743Z,96522.19
2022-11-05T12:07:37.080Z,96516.50
2022-11-05T12:10:18.673Z,96524.66
2022-11-05T12:13:14.141Z,96520.00
2022-11-05T12:16:02.398Z,96518.66
2022-11-05T12:18:55.303Z,96513.88
2022-11-05T12:22:03.447Z,96518.06
2022-11-05T12:24:54.732Z,96525.75
2022-11-05T12:28:04.340Z,96524.69
2022-11-05T12:31:01.164Z,96507.59
2022-11-05T12:33:30.198Z,96506.16
2022-11-05T12:36:25.951Z,96506.56
2022-11-05T12:39:14.643Z,96506.41
2022-11-05T12:41:59.971Z,96502.13
2022-11-05T12:44:45.182Z,96511.84
2022-11-05T12:47:14.655Z,96511.13
2022-11-05T12:50:02.380Z,96503.66
2022-11-05T12:52:38.447Z,96501.47
2022-11-05T12:55:21.173Z,96503.78
2022-11-05T12:57:51.940Z,96496.38
2022-11-05T13:00:27.833Z,96500.69
2022-11-05T13:02:57.143Z,96514.25
2022-11-05T13:05:40.887Z,96518.97
2022-11-05T13:08:48.990Z,96512.78
2022-11-05T13:11:21.625Z,96513.56
2022-11-05T13:14:18.372Z,96515.13
2022-11-05T13:16:47.571Z,96512.50
2022-11-05T13:19:36.538Z,96513.81
2022-11-05T13:22:13.327Z,96505.81
2022-11-05T13:24:49.744Z,96500.09
2022-11-05T13:27:22.357Z,96513.06
2022-11-05T13:30:12.427Z,96503.41
2022-11-05T13:32:53.259Z,96501.81
2022-11-05T13:35:31.467Z,96515.72
2022-11-05T13:38:26.747Z,96507.72
2022-11-05T13:41:35.697Z,96500.44
2022-11-05T13:44:13.298Z,96496.06
2022-11-05T13:47:13.206Z,96511.81
2022-11-05T13:50:18.907Z,96496.94
2022-11-05T13:52:51.520Z,96505.50
2022-11-05T13:55:57.674Z,96500.88
2022-11-05T13:58:37.576Z,96507.81
2022-11-05T14:01:20.492Z,96510.44
2022-11-05T14:03:50.847Z,96498.94
2022-11-05T14:06:33.434Z,96506.16
2022-11-05T14:09:10.198Z,96512.78
2022-11-05T14:11:50.914Z,96506.28
2022-11-05T14:14:29.895Z,96527.69
2022-11-05T14:17:28.162Z,96531.34
2022-11-05T14:20:37.300Z,96520.63
2022-11-05T14:23:23.136Z,96518.19
2022-11-05T14:26:19.721Z,96522.66
2022-11-05T14:28:48.745Z,96513.25
2022-11-05T14:31:47.349Z,96518.25
2022-11-05T14:34:16.965Z,96515.50
2022-11-05T14:37:14.062Z,96515.81
2022-11-05T14:39:41.916Z,96518.69
2022-11-05T14:42:24.711Z,96508.16
2022-11-05T14:45:14.141Z,96510.28
2022-11-05T14:47:53.093Z,96509.47
2022-11-05T14:50:31.105Z,96507.03
2022-11-05T14:53:06.778Z,96513.47
2022-11-05T14:55:39.269Z,96497.88
2022-11-05T14:58:46.167Z,96512.03
2022-11-05T15:01:42.161Z,96493.22
2022-11-05T15:04:32.888Z,96507.97
2022-11-05T15:07:05.856Z,96518.38
2022-11-05T15:09:40.410Z,96508.97
2022-11-05T15:12:25.259Z,96520.84
2022-11-05T15:15:02.172Z,96516.50
2022-11-05T15:17:38.761Z,96525.84
2022-11-05T15:20:16.707Z,96500.44
2022-11-05T15:22:51.841Z,96511.78
2022-11-05T15:25:28.719Z,96522.44
2022-11-05T15:28:14.112Z,96529.72
2022-11-05T15:31:01.681Z,96515.84
2022-11-05T15:33:28.546Z,96533.09
2022-11-05T15:36:07.604Z,96527.97
2022-11-05T15:38:36.099Z,96530.31
2022-11-05T15:41:20.032Z,96541.44
2022-11-05T15:43:51.183Z,96547.84
2022-11-05T15:46:21.855Z,96525.97
2022-11-05T15:48:54.864Z,96538.59
2022-11-05T15:51:23.984Z,96557.69
2022-11-05T15:54:16.188Z,96547.63
2022-11-05T15:56:49.194Z,96553.28
2022-11-05T15:59:22.684Z,96538.09
2022-11-05T16:01:58.057Z,96544.00
2022-11-05T16:04:32.114Z,96554.59
2022-11-05T16:07:11.108Z,96491.97
2022-11-05T16:09:43.661Z,96558.97
2022-11-05T16:12:19.586Z,96576.75
2022-11-05T16:14:57.172Z,96580.09
2022-11-05T16:17:28.796Z,96592.72
2022-11-05T16:19:56.951Z,96590.13
2022-11-05T16:22:24.143Z,96595.56
2022-11-05T16:24:52.017Z,96597.88
2022-11-05T16:27:22.047Z,96604.81
2022-11-05T16:29:57.317Z,96609.22
2022-11-05T16:32:31.135Z,96616.69
2022-11-05T16:35:01.588Z,96611.03
2022-11-05T16:37:40.042Z,96624.69
2022-11-05T16:40:19.505Z,96617.47
2022-11-05T16:42:48.592Z,96613.84
2022-11-05T16:45:19.196Z,96613.59
2022-11-05T16:47:48.792Z,96610.75
2022-11-05T16:50:22.231Z,96603.81
2022-11-05T16:52:49.338Z,96615.41
2022-11-05T16:55:17.296Z,96591.69
2022-11-05T16:57:47.753Z,96611.03
2022-11-05T17:00:17.180Z,96607.16
2022-11-05T17:02:44.466Z,96604.31
2022-11-05T17:05:29.317Z,96605.84
2022-11-05T17:07:57.721Z,96613.31
2022-11-05T17:10:25.926Z,96619.72
2022-11-05T17:12:54.031Z,96621.25
2022-11-05T17:15:25.582Z,96626.88
2022-11-05T17:17:54.674Z,96634.50
2022-11-05T17:20:39.926Z,96644.53
2022-11-05T17:23:21.475Z,96634.19
2022-11-05T17:25:52.662Z,96628.00
2022-11-05T17:28:21.363Z,96634.97
2022-11-05T17:30:54.245Z,96622.63
2022-11-05T17:33:23.235Z,96639.13
2022-11-05T17:35:50.713Z,96626.66
2022-11-05T17:38:17.552Z,96632.25
2022-11-05T17:40:44.108Z,96624.94
2022-11-05T17:43:11.306Z,96637.56
2022-11-05T17:46:01.543Z,96641.16
2022-11-05T17:48:30.971Z,96630.91
2022-11-05T17:50:57.535Z,96641.94
2022-11-05T17:53:24.253Z,96633.59
2022-11-05T17:55:50.787Z,96650.16
2022-11-05T17:58:17.524Z,96629.44
2022-11-05T18:00:45.776Z,96639.41
2022-11-05T18:03:13.358Z,96640.59
2022-11-05T18:05:41.275Z,96632.41
2022-11-05T18:08:08.790Z,96635.97
2022-11-05T18:10:41.141Z,96636.94
2022-11-05T18:13:10.214Z,96623.84
2022-11-05T18:15:40.966Z,96627.84
2022-11-05T18:18:09.244Z,96631.06
2022-11-05T18:20:35.897Z,96636.72
2022-11-05T18:23:02.626Z,96635.28
2022-11-05T18:25:29.213Z,96628.34
2022-11-05T18:27:56.863Z,96628.94
2022-11-05T18:30:24.458Z,96625.09
2022-11-05T18:32:52.316Z,96622.56
2022-11-05T18:35:20.403Z,96640.59
2022-11-05T18:37:48.471Z,96622.56
2022-11-05T18:40:16.323Z,96642.16
2022-11-05T18:42:43.131Z,96627.00
2022-11-05T18:45:10.756Z,96638.91
2022-11-05T18:47:37.296Z,96636.03
2022-11-05T18:50:05.651Z,96630.44
2022-11-05T18:52:32.851Z,96640.41
2022-11-05T18:54:59.790Z,96626.78
2022-11-05T18:57:26.879Z,96630.53
2022-11-05T18:59:53.847Z,96619.13
2022-11-05T19:02:20.543Z,96624.69
2022-11-05T19:05:27.545Z,96628.84
2022-11-05T19:07:44.545Z,96625.94
2022-11-05T19:10:12.464Z,96618.97
2022-11-05T19:12:42.273Z,96615.31
2022-11-05T19:15:10.129Z,96601.56
2022-11-05T19:17:37.707Z,96605.28
2022-11-05T19:20:06.378Z,96630.72
2022-11-05T19:22:33.274Z,96623.41
2022-11-05T19:25:01.365Z,96621.50
2022-11-05T19:27:27.994Z,96638.59
2022-11-05T19:29:55.784Z,96624.81
2022-11-05T19:32:24.493Z,96623.44
2022-11-05T19:34:52.187Z,96631.47
2022-11-05T19:37:20.140Z,96630.22
2022-11-05T19:39:50.431Z,96622.06
2022-11-05T19:42:18.044Z,96616.22
2022-11-05T19:44:44.643Z,96623.03
2022-11-05T19:47:11.254Z,96628.84
2022-11-05T19:49:37.798Z,96641.72
2022-11-05T19:52:04.632Z,96649.56
2022-11-05T19:54:32.419Z,96653.16
2022-11-05T19:57:00.332Z,96653.75
2022-11-05T19:59:26.966Z,96654.53
2022-11-05T20:01:53.614Z,96664.78
2022-11-05T20:04:20.316Z,96656.63
2022-11-05T20:06:46.860Z,96651.59
2022-11-05T20:09:23.359Z,96658.22
2022-11-05T20:11:54.933Z,96672.28
2022-11-05T20:14:22.764Z,96658.59
2022-11-05T20:16:49.996Z,96672.56
2022-11-05T20:19:19.438Z,96664.25
2022-11-05T20:21:46.619Z,96641.31
2022-11-05T20:24:18.771Z,96673.09
2022-11-05T20:26:48.890Z,96659.09
2022-11-05T20:29:15.566Z,96650.91
2022-11-05T20:31:42.163Z,96617.22
2022-11-05T20:34:08.994Z,96668.91
2022-11-05T20:36:35.557Z,96662.09
2022-11-05T20:39:02.931Z,96656.75
2022-11-05T20:41:30.623Z,96673.75
2022-11-05T20:43:57.284Z,96673.94
2022-11-05T20:46:23.972Z,96660.31
2022-11-05T20:48:51.380Z,96677.41
2022-11-05T20:51:20.537Z,96685.00
2022-11-05T20:53:47.768Z,96676.84
2022-11-05T20:56:19.651Z,96684.78
2022-11-05T20:58:47.332Z,96645.25
2022-11-05T21:01:15.451Z,96662.72
2022-11-05T21:03:42.805Z,96663.59
2022-11-05T21:06:09.445Z,96660.56
2022-11-05T21:08:36.299Z,96676.78
2022-11-05T21:11:02.888Z,96665.19
2022-11-05T21:13:30.313Z,96676.41
2022-11-05T21:15:58.599Z,96670.00
2022-11-05T21:18:28.022Z,96671.44
2022-11-05T21:20:55.283Z,96670.13
2022-11-05T21:23:22.195Z,96672.88
2022-11-05T21:25:48.747Z,96659.50
2022-11-05T21:28:16.292Z,96673.50
2022-11-05T21:30:45.850Z,96667.56
2022-11-05T21:33:14.517Z,96645.41
2022-11-05T21:35:44.122Z,96675.53
2022-11-05T21:38:12.877Z,96656.81
2022-11-05T21:40:40.531Z,96680.63
2022-11-05T21:43:07.225Z,96685.56
2022-11-05T21:45:33.831Z,96648.59
2022-11-05T21:48:00.433Z,96655.19
2022-11-05T21:50:45.726Z,96681.00
2022-11-05T21:53:35.602Z,96681.94
2022-11-05T21:56:37.820Z,96678.81
2022-11-05T21:59:23.734Z,96679.78
2022-11-05T22:01:50.383Z,96669.78
2022-11-05T22:04:17.207Z,96674.50
2022-11-05T22:06:43.761Z,96672.28
2022-11-05T22:09:10.303Z,96665.81
2022-11-05T22:11:37.631Z,96683.97
2022-11-05T22:14:04.050Z,96681.06
2022-11-05T22:16:30.599Z,96665.72
2022-11-05T22:18:58.183Z,96682.13
2022-11-05T22:21:26.103Z,96686.75
2022-11-05T22:23:53.754Z,96652.56
2022-11-05T22:26:24.199Z,96657.41
2022-11-05T22:28:55.350Z,96670.88
2022-11-05T22:31:22.522Z,96647.13
2022-11-05T22:33:49.616Z,96675.16
2022-11-05T22:36:16.197Z,96641.44
2022-11-05T22:38:44.195Z,96667.09
2022-11-05T22:41:14.255Z,96669.47
2022-11-05T22:43:41.107Z,96669.66
2022-11-05T22:46:22.816Z,96679.28
2022-11-05T22:48:50.140Z,96665.38
2022-11-05T22:51:37.270Z,96665.97
2022-11-05T22:54:03.800Z,96665.38
2022-11-05T22:56:33.119Z,96663.69
2022-11-05T22:59:00.003Z,96657.50
2022-11-05T23:01:27.159Z,96654.03
2022-11-05T23:03:56.410Z,96667.28
2022-11-05T23:06:44.270Z,96658.97
2022-11-05T23:09:52.657Z,96664.34
2022-11-05T23:12:45.049Z,96659.03
2022-11-05T23:15:31.745Z,96653.09
2022-11-05T23:18:18.855Z,96650.13
2022-11-05T23:21:09.227Z,96665.09
2022-11-05T23:23:55.688Z,96661.97
2022-11-05T23:26:41.701Z,96661.88
2022-11-05T23:29:09.374Z,96649.28
2022-11-05T23:31:58.722Z,96668.00
2022-11-05T23:34:26.483Z,96666.00
2022-11-05T23:37:24.867Z,96673.50
2022-11-05T23:39:52.790Z,96652.91
2022-11-05T23:42:43.355Z,96663.78
2022-11-05T23:45:38.133Z,96660.34
2022-11-05T23:48:16.781Z,96666.22
2022-11-05T23:51:00.872Z,96650.00
2022-11-05T23:53:28.915Z,96650.63
2022-11-05T23:56:10.529Z,96651.44
2022-11-05T23:58:39.551Z,96646.66
